<?xml version="1.0" encoding="UTF-8" standalone="no" ?>
<gpx xmlns="http://www.topografix.com/GPX/1/1" xmlns:xsi="http://www.w3.org/2001/XMLSchema-instance" xsi:schemaLocation="http://www.topografix.com/GPX/1/1 http://www.topografix.com/GPX/1/1/gpx.xsd" version="1.1" creator="VisuGPX - https://www.visugpx.com">
  <metadata>
    <name>SERAINCOURT AVERNESLONGUESSE-14572010</name>
    <desc><![CDATA[FAIT]]></desc>
  </metadata>
  <trk>
    <name><![CDATA[SERAINCOURT AVERNESLONGUESSE-14572010]]></name>
    <trkseg>
      <trkpt lat="49.03471" lon="1.86437">
        <ele>39</ele>
        <time>2023-01-08T18:23:37Z</time>
      </trkpt>
      <trkpt lat="49.03467" lon="1.86438">
        <ele>39</ele>
        <time>2023-01-08T18:23:42Z</time>
      </trkpt>
      <trkpt lat="49.0348" lon="1.86444">
        <ele>39</ele>
        <time>2023-01-08T18:24:01Z</time>
      </trkpt>
      <trkpt lat="49.03487" lon="1.86454">
        <ele>39</ele>
        <time>2023-01-08T18:24:13Z</time>
      </trkpt>
      <trkpt lat="49.0349" lon="1.86467">
        <ele>38</ele>
        <time>2023-01-08T18:24:25Z</time>
      </trkpt>
      <trkpt lat="49.03489" lon="1.86507">
        <ele>38</ele>
        <time>2023-01-08T18:25:00Z</time>
      </trkpt>
      <trkpt lat="49.03499" lon="1.86534">
        <ele>39</ele>
        <time>2023-01-08T18:25:28Z</time>
      </trkpt>
      <trkpt lat="49.03511" lon="1.8655">
        <ele>40</ele>
        <time>2023-01-08T18:25:49Z</time>
      </trkpt>
      <trkpt lat="49.03522" lon="1.86581">
        <ele>41</ele>
        <time>2023-01-08T18:26:20Z</time>
      </trkpt>
      <trkpt lat="49.03543" lon="1.86616">
        <ele>40</ele>
        <time>2023-01-08T18:27:01Z</time>
      </trkpt>
      <trkpt lat="49.03537" lon="1.86662">
        <ele>40</ele>
        <time>2023-01-08T18:27:42Z</time>
      </trkpt>
      <trkpt lat="49.03507" lon="1.86702">
        <ele>39</ele>
        <time>2023-01-08T18:28:35Z</time>
      </trkpt>
      <trkpt lat="49.035" lon="1.86755">
        <ele>41</ele>
        <time>2023-01-08T18:29:23Z</time>
      </trkpt>
      <trkpt lat="49.035" lon="1.8679">
        <ele>45</ele>
        <time>2023-01-08T18:29:53Z</time>
      </trkpt>
      <trkpt lat="49.03521" lon="1.86802">
        <ele>47</ele>
        <time>2023-01-08T18:30:23Z</time>
      </trkpt>
      <trkpt lat="49.03538" lon="1.86805">
        <ele>47</ele>
        <time>2023-01-08T18:30:46Z</time>
      </trkpt>
      <trkpt lat="49.03597" lon="1.8684">
        <ele>50</ele>
        <time>2023-01-08T18:32:11Z</time>
      </trkpt>
      <trkpt lat="49.03617" lon="1.86844">
        <ele>48</ele>
        <time>2023-01-08T18:32:37Z</time>
      </trkpt>
      <trkpt lat="49.03631" lon="1.86855">
        <ele>48</ele>
        <time>2023-01-08T18:32:58Z</time>
      </trkpt>
      <trkpt lat="49.0367" lon="1.86874">
        <ele>46</ele>
        <time>2023-01-08T18:33:53Z</time>
      </trkpt>
      <trkpt lat="49.03696" lon="1.86875">
        <ele>46</ele>
        <time>2023-01-08T18:34:28Z</time>
      </trkpt>
      <trkpt lat="49.03721" lon="1.86899">
        <ele>47</ele>
        <time>2023-01-08T18:35:07Z</time>
      </trkpt>
      <trkpt lat="49.03724" lon="1.86906">
        <ele>47</ele>
        <time>2023-01-08T18:35:15Z</time>
      </trkpt>
      <trkpt lat="49.03719" lon="1.86944">
        <ele>51</ele>
        <time>2023-01-08T18:35:48Z</time>
      </trkpt>
      <trkpt lat="49.03721" lon="1.86963">
        <ele>53</ele>
        <time>2023-01-08T18:36:05Z</time>
      </trkpt>
      <trkpt lat="49.03739" lon="1.86998">
        <ele>57</ele>
        <time>2023-01-08T18:36:44Z</time>
      </trkpt>
      <trkpt lat="49.03761" lon="1.87021">
        <ele>58</ele>
        <time>2023-01-08T18:37:20Z</time>
      </trkpt>
      <trkpt lat="49.03764" lon="1.87029">
        <ele>58</ele>
        <time>2023-01-08T18:37:28Z</time>
      </trkpt>
      <trkpt lat="49.03761" lon="1.87059">
        <ele>61</ele>
        <time>2023-01-08T18:37:54Z</time>
      </trkpt>
      <trkpt lat="49.0375" lon="1.8708">
        <ele>65</ele>
        <time>2023-01-08T18:38:18Z</time>
      </trkpt>
      <trkpt lat="49.03736" lon="1.87127">
        <ele>69</ele>
        <time>2023-01-08T18:39:03Z</time>
      </trkpt>
      <trkpt lat="49.03738" lon="1.87145">
        <ele>71</ele>
        <time>2023-01-08T18:39:19Z</time>
      </trkpt>
      <trkpt lat="49.03774" lon="1.87169">
        <ele>71</ele>
        <time>2023-01-08T18:40:11Z</time>
      </trkpt>
      <trkpt lat="49.03812" lon="1.87177">
        <ele>69</ele>
        <time>2023-01-08T18:41:03Z</time>
      </trkpt>
      <trkpt lat="49.03834" lon="1.87195">
        <ele>68</ele>
        <time>2023-01-08T18:41:36Z</time>
      </trkpt>
      <trkpt lat="49.0384" lon="1.87225">
        <ele>70</ele>
        <time>2023-01-08T18:42:03Z</time>
      </trkpt>
      <trkpt lat="49.03856" lon="1.87242">
        <ele>70</ele>
        <time>2023-01-08T18:42:29Z</time>
      </trkpt>
      <trkpt lat="49.03861" lon="1.87254">
        <ele>70</ele>
        <time>2023-01-08T18:42:42Z</time>
      </trkpt>
      <trkpt lat="49.03886" lon="1.87278">
        <ele>71</ele>
        <time>2023-01-08T18:43:21Z</time>
      </trkpt>
      <trkpt lat="49.03923" lon="1.87305">
        <ele>70</ele>
        <time>2023-01-08T18:44:16Z</time>
      </trkpt>
      <trkpt lat="49.03989" lon="1.87327">
        <ele>68</ele>
        <time>2023-01-08T18:45:46Z</time>
      </trkpt>
      <trkpt lat="49.04039" lon="1.87326">
        <ele>66</ele>
        <time>2023-01-08T18:46:53Z</time>
      </trkpt>
      <trkpt lat="49.04098" lon="1.87356">
        <ele>66</ele>
        <time>2023-01-08T18:48:16Z</time>
      </trkpt>
      <trkpt lat="49.04148" lon="1.87406">
        <ele>66</ele>
        <time>2023-01-08T18:49:36Z</time>
      </trkpt>
      <trkpt lat="49.04165" lon="1.87428">
        <ele>67</ele>
        <time>2023-01-08T18:50:05Z</time>
      </trkpt>
      <trkpt lat="49.04185" lon="1.87442">
        <ele>67</ele>
        <time>2023-01-08T18:50:35Z</time>
      </trkpt>
      <trkpt lat="49.04204" lon="1.87463">
        <ele>68</ele>
        <time>2023-01-08T18:51:06Z</time>
      </trkpt>
      <trkpt lat="49.04223" lon="1.87471">
        <ele>68</ele>
        <time>2023-01-08T18:51:32Z</time>
      </trkpt>
      <trkpt lat="49.04235" lon="1.87488">
        <ele>69</ele>
        <time>2023-01-08T18:51:54Z</time>
      </trkpt>
      <trkpt lat="49.04261" lon="1.87509">
        <ele>68</ele>
        <time>2023-01-08T18:52:34Z</time>
      </trkpt>
      <trkpt lat="49.04268" lon="1.87526">
        <ele>69</ele>
        <time>2023-01-08T18:52:51Z</time>
      </trkpt>
      <trkpt lat="49.04317" lon="1.87605">
        <ele>68</ele>
        <time>2023-01-08T18:54:26Z</time>
      </trkpt>
      <trkpt lat="49.04372" lon="1.87652">
        <ele>67</ele>
        <time>2023-01-08T18:55:50Z</time>
      </trkpt>
      <trkpt lat="49.04394" lon="1.87665">
        <ele>67</ele>
        <time>2023-01-08T18:56:22Z</time>
      </trkpt>
      <trkpt lat="49.04403" lon="1.87678">
        <ele>67</ele>
        <time>2023-01-08T18:56:38Z</time>
      </trkpt>
      <trkpt lat="49.0442" lon="1.87688">
        <ele>67</ele>
        <time>2023-01-08T18:57:03Z</time>
      </trkpt>
      <trkpt lat="49.04514" lon="1.87792">
        <ele>67</ele>
        <time>2023-01-08T18:59:38Z</time>
      </trkpt>
      <trkpt lat="49.04532" lon="1.87804">
        <ele>66</ele>
        <time>2023-01-08T19:00:04Z</time>
      </trkpt>
      <trkpt lat="49.04549" lon="1.87797">
        <ele>64</ele>
        <time>2023-01-08T19:00:27Z</time>
      </trkpt>
      <trkpt lat="49.04569" lon="1.87799">
        <ele>63</ele>
        <time>2023-01-08T19:00:54Z</time>
      </trkpt>
      <trkpt lat="49.0458" lon="1.87807">
        <ele>62</ele>
        <time>2023-01-08T19:01:10Z</time>
      </trkpt>
      <trkpt lat="49.04628" lon="1.87867">
        <ele>65</ele>
        <time>2023-01-08T19:02:33Z</time>
      </trkpt>
      <trkpt lat="49.04658" lon="1.87895">
        <ele>65</ele>
        <time>2023-01-08T19:03:20Z</time>
      </trkpt>
      <trkpt lat="49.04669" lon="1.879">
        <ele>65</ele>
        <time>2023-01-08T19:03:35Z</time>
      </trkpt>
      <trkpt lat="49.04708" lon="1.87905">
        <ele>65</ele>
        <time>2023-01-08T19:04:28Z</time>
      </trkpt>
      <trkpt lat="49.04735" lon="1.8793">
        <ele>65</ele>
        <time>2023-01-08T19:05:10Z</time>
      </trkpt>
      <trkpt lat="49.0474" lon="1.87903">
        <ele>64</ele>
        <time>2023-01-08T19:05:34Z</time>
      </trkpt>
      <trkpt lat="49.04767" lon="1.87838">
        <ele>63</ele>
        <time>2023-01-08T19:06:42Z</time>
      </trkpt>
      <trkpt lat="49.04776" lon="1.87805">
        <ele>64</ele>
        <time>2023-01-08T19:07:13Z</time>
      </trkpt>
      <trkpt lat="49.0478" lon="1.87768">
        <ele>65</ele>
        <time>2023-01-08T19:07:46Z</time>
      </trkpt>
      <trkpt lat="49.04776" lon="1.87706">
        <ele>65</ele>
        <time>2023-01-08T19:08:40Z</time>
      </trkpt>
      <trkpt lat="49.04795" lon="1.87608">
        <ele>68</ele>
        <time>2023-01-08T19:10:10Z</time>
      </trkpt>
      <trkpt lat="49.04818" lon="1.87549">
        <ele>71</ele>
        <time>2023-01-08T19:11:10Z</time>
      </trkpt>
      <trkpt lat="49.04873" lon="1.8751">
        <ele>76</ele>
        <time>2023-01-08T19:12:31Z</time>
      </trkpt>
      <trkpt lat="49.04994" lon="1.87449">
        <ele>84</ele>
        <time>2023-01-08T19:15:21Z</time>
      </trkpt>
      <trkpt lat="49.05067" lon="1.87436">
        <ele>88</ele>
        <time>2023-01-08T19:16:59Z</time>
      </trkpt>
      <trkpt lat="49.05085" lon="1.87445">
        <ele>90</ele>
        <time>2023-01-08T19:17:24Z</time>
      </trkpt>
      <trkpt lat="49.05156" lon="1.87445">
        <ele>94</ele>
        <time>2023-01-08T19:18:59Z</time>
      </trkpt>
      <trkpt lat="49.05182" lon="1.87449">
        <ele>96</ele>
        <time>2023-01-08T19:19:34Z</time>
      </trkpt>
      <trkpt lat="49.05202" lon="1.87446">
        <ele>97</ele>
        <time>2023-01-08T19:20:00Z</time>
      </trkpt>
      <trkpt lat="49.0528" lon="1.87453">
        <ele>100</ele>
        <time>2023-01-08T19:21:45Z</time>
      </trkpt>
      <trkpt lat="49.05335" lon="1.8742">
        <ele>102</ele>
        <time>2023-01-08T19:23:04Z</time>
      </trkpt>
      <trkpt lat="49.05441" lon="1.87343">
        <ele>99</ele>
        <time>2023-01-08T19:25:40Z</time>
      </trkpt>
      <trkpt lat="49.05675" lon="1.87206">
        <ele>103</ele>
        <time>2023-01-08T19:31:15Z</time>
      </trkpt>
      <trkpt lat="49.05729" lon="1.87158">
        <ele>103</ele>
        <time>2023-01-08T19:32:38Z</time>
      </trkpt>
      <trkpt lat="49.0578" lon="1.8712">
        <ele>103</ele>
        <time>2023-01-08T19:33:54Z</time>
      </trkpt>
      <trkpt lat="49.05865" lon="1.87069">
        <ele>102</ele>
        <time>2023-01-08T19:35:56Z</time>
      </trkpt>
      <trkpt lat="49.05905" lon="1.87054">
        <ele>102</ele>
        <time>2023-01-08T19:36:51Z</time>
      </trkpt>
      <trkpt lat="49.05932" lon="1.87054">
        <ele>102</ele>
        <time>2023-01-08T19:37:27Z</time>
      </trkpt>
      <trkpt lat="49.05976" lon="1.87042">
        <ele>102</ele>
        <time>2023-01-08T19:38:26Z</time>
      </trkpt>
      <trkpt lat="49.06007" lon="1.87028">
        <ele>102</ele>
        <time>2023-01-08T19:39:09Z</time>
      </trkpt>
      <trkpt lat="49.06015" lon="1.8702">
        <ele>102</ele>
        <time>2023-01-08T19:39:22Z</time>
      </trkpt>
      <trkpt lat="49.06058" lon="1.87002">
        <ele>103</ele>
        <time>2023-01-08T19:40:22Z</time>
      </trkpt>
      <trkpt lat="49.06102" lon="1.86972">
        <ele>105</ele>
        <time>2023-01-08T19:41:26Z</time>
      </trkpt>
      <trkpt lat="49.06199" lon="1.86926">
        <ele>110</ele>
        <time>2023-01-08T19:43:42Z</time>
      </trkpt>
      <trkpt lat="49.06245" lon="1.8691">
        <ele>112</ele>
        <time>2023-01-08T19:44:45Z</time>
      </trkpt>
      <trkpt lat="49.0629" lon="1.86911">
        <ele>113</ele>
        <time>2023-01-08T19:45:45Z</time>
      </trkpt>
      <trkpt lat="49.06356" lon="1.86872">
        <ele>116</ele>
        <time>2023-01-08T19:47:19Z</time>
      </trkpt>
      <trkpt lat="49.06428" lon="1.8685">
        <ele>116</ele>
        <time>2023-01-08T19:48:57Z</time>
      </trkpt>
      <trkpt lat="49.06437" lon="1.86843">
        <ele>116</ele>
        <time>2023-01-08T19:49:11Z</time>
      </trkpt>
      <trkpt lat="49.06503" lon="1.86705">
        <ele>119</ele>
        <time>2023-01-08T19:51:40Z</time>
      </trkpt>
      <trkpt lat="49.06504" lon="1.86685">
        <ele>120</ele>
        <time>2023-01-08T19:51:57Z</time>
      </trkpt>
      <trkpt lat="49.06498" lon="1.86645">
        <ele>121</ele>
        <time>2023-01-08T19:52:33Z</time>
      </trkpt>
      <trkpt lat="49.06488" lon="1.8663">
        <ele>122</ele>
        <time>2023-01-08T19:52:52Z</time>
      </trkpt>
      <trkpt lat="49.06479" lon="1.86626">
        <ele>122</ele>
        <time>2023-01-08T19:53:05Z</time>
      </trkpt>
      <trkpt lat="49.065" lon="1.86639">
        <ele>121</ele>
        <time>2023-01-08T19:53:35Z</time>
      </trkpt>
      <trkpt lat="49.06518" lon="1.86597">
        <ele>123</ele>
        <time>2023-01-08T19:54:19Z</time>
      </trkpt>
      <trkpt lat="49.0652" lon="1.86578">
        <ele>124</ele>
        <time>2023-01-08T19:54:35Z</time>
      </trkpt>
      <trkpt lat="49.06486" lon="1.8645">
        <ele>137</ele>
        <time>2023-01-08T19:56:36Z</time>
      </trkpt>
      <trkpt lat="49.06473" lon="1.86364">
        <ele>142</ele>
        <time>2023-01-08T19:57:53Z</time>
      </trkpt>
      <trkpt lat="49.06455" lon="1.8631">
        <ele>145</ele>
        <time>2023-01-08T19:58:46Z</time>
      </trkpt>
      <trkpt lat="49.06447" lon="1.86217">
        <ele>148</ele>
        <time>2023-01-08T20:00:08Z</time>
      </trkpt>
      <trkpt lat="49.0645" lon="1.86174">
        <ele>149</ele>
        <time>2023-01-08T20:00:46Z</time>
      </trkpt>
      <trkpt lat="49.06433" lon="1.86119">
        <ele>151</ele>
        <time>2023-01-08T20:01:39Z</time>
      </trkpt>
      <trkpt lat="49.06431" lon="1.86054">
        <ele>155</ele>
        <time>2023-01-08T20:02:36Z</time>
      </trkpt>
      <trkpt lat="49.06426" lon="1.86033">
        <ele>156</ele>
        <time>2023-01-08T20:02:56Z</time>
      </trkpt>
      <trkpt lat="49.06432" lon="1.86026">
        <ele>157</ele>
        <time>2023-01-08T20:03:06Z</time>
      </trkpt>
      <trkpt lat="49.06432" lon="1.8603">
        <ele>157</ele>
        <time>2023-01-08T20:03:09Z</time>
      </trkpt>
      <trkpt lat="49.06439" lon="1.86032">
        <ele>157</ele>
        <time>2023-01-08T20:03:19Z</time>
      </trkpt>
      <trkpt lat="49.06441" lon="1.86028">
        <ele>157</ele>
        <time>2023-01-08T20:03:23Z</time>
      </trkpt>
      <trkpt lat="49.06437" lon="1.86031">
        <ele>157</ele>
        <time>2023-01-08T20:03:29Z</time>
      </trkpt>
      <trkpt lat="49.06434" lon="1.86014">
        <ele>158</ele>
        <time>2023-01-08T20:03:45Z</time>
      </trkpt>
      <trkpt lat="49.0644" lon="1.86002">
        <ele>159</ele>
        <time>2023-01-08T20:03:58Z</time>
      </trkpt>
      <trkpt lat="49.06457" lon="1.85984">
        <ele>159</ele>
        <time>2023-01-08T20:04:25Z</time>
      </trkpt>
      <trkpt lat="49.06478" lon="1.85929">
        <ele>160</ele>
        <time>2023-01-08T20:05:21Z</time>
      </trkpt>
      <trkpt lat="49.06481" lon="1.859">
        <ele>160</ele>
        <time>2023-01-08T20:05:47Z</time>
      </trkpt>
      <trkpt lat="49.0649" lon="1.85887">
        <ele>159</ele>
        <time>2023-01-08T20:06:03Z</time>
      </trkpt>
      <trkpt lat="49.06503" lon="1.85845">
        <ele>158</ele>
        <time>2023-01-08T20:06:44Z</time>
      </trkpt>
      <trkpt lat="49.0655" lon="1.85783">
        <ele>154</ele>
        <time>2023-01-08T20:08:07Z</time>
      </trkpt>
      <trkpt lat="49.06568" lon="1.85721">
        <ele>153</ele>
        <time>2023-01-08T20:09:06Z</time>
      </trkpt>
      <trkpt lat="49.06568" lon="1.85674">
        <ele>152</ele>
        <time>2023-01-08T20:09:47Z</time>
      </trkpt>
      <trkpt lat="49.06577" lon="1.85639">
        <ele>153</ele>
        <time>2023-01-08T20:10:20Z</time>
      </trkpt>
      <trkpt lat="49.06577" lon="1.85611">
        <ele>153</ele>
        <time>2023-01-08T20:10:45Z</time>
      </trkpt>
      <trkpt lat="49.06614" lon="1.85526">
        <ele>158</ele>
        <time>2023-01-08T20:12:14Z</time>
      </trkpt>
      <trkpt lat="49.06624" lon="1.85524">
        <ele>159</ele>
        <time>2023-01-08T20:12:27Z</time>
      </trkpt>
      <trkpt lat="49.0665" lon="1.85532">
        <ele>161</ele>
        <time>2023-01-08T20:13:03Z</time>
      </trkpt>
      <trkpt lat="49.06679" lon="1.85527">
        <ele>163</ele>
        <time>2023-01-08T20:13:42Z</time>
      </trkpt>
      <trkpt lat="49.06702" lon="1.85535">
        <ele>164</ele>
        <time>2023-01-08T20:14:13Z</time>
      </trkpt>
      <trkpt lat="49.06728" lon="1.85552">
        <ele>163</ele>
        <time>2023-01-08T20:14:51Z</time>
      </trkpt>
      <trkpt lat="49.06761" lon="1.85566">
        <ele>163</ele>
        <time>2023-01-08T20:15:37Z</time>
      </trkpt>
      <trkpt lat="49.06777" lon="1.85568">
        <ele>163</ele>
        <time>2023-01-08T20:15:58Z</time>
      </trkpt>
      <trkpt lat="49.06815" lon="1.85561">
        <ele>165</ele>
        <time>2023-01-08T20:16:49Z</time>
      </trkpt>
      <trkpt lat="49.06821" lon="1.85565">
        <ele>164</ele>
        <time>2023-01-08T20:16:58Z</time>
      </trkpt>
      <trkpt lat="49.06823" lon="1.85573">
        <ele>164</ele>
        <time>2023-01-08T20:17:05Z</time>
      </trkpt>
      <trkpt lat="49.06838" lon="1.85684">
        <ele>166</ele>
        <time>2023-01-08T20:18:44Z</time>
      </trkpt>
      <trkpt lat="49.06866" lon="1.85725">
        <ele>167</ele>
        <time>2023-01-08T20:19:36Z</time>
      </trkpt>
      <trkpt lat="49.06886" lon="1.85789">
        <ele>166</ele>
        <time>2023-01-08T20:20:38Z</time>
      </trkpt>
      <trkpt lat="49.06927" lon="1.85847">
        <ele>163</ele>
        <time>2023-01-08T20:21:53Z</time>
      </trkpt>
      <trkpt lat="49.06942" lon="1.85859">
        <ele>161</ele>
        <time>2023-01-08T20:22:15Z</time>
      </trkpt>
      <trkpt lat="49.06973" lon="1.85909">
        <ele>157</ele>
        <time>2023-01-08T20:23:15Z</time>
      </trkpt>
      <trkpt lat="49.07001" lon="1.85979">
        <ele>154</ele>
        <time>2023-01-08T20:24:27Z</time>
      </trkpt>
      <trkpt lat="49.07012" lon="1.86047">
        <ele>154</ele>
        <time>2023-01-08T20:25:28Z</time>
      </trkpt>
      <trkpt lat="49.0703" lon="1.86115">
        <ele>153</ele>
        <time>2023-01-08T20:26:33Z</time>
      </trkpt>
      <trkpt lat="49.07054" lon="1.86152">
        <ele>151</ele>
        <time>2023-01-08T20:27:18Z</time>
      </trkpt>
      <trkpt lat="49.07079" lon="1.86203">
        <ele>150</ele>
        <time>2023-01-08T20:28:14Z</time>
      </trkpt>
      <trkpt lat="49.0712" lon="1.86329">
        <ele>154</ele>
        <time>2023-01-08T20:30:17Z</time>
      </trkpt>
      <trkpt lat="49.07157" lon="1.86329">
        <ele>147</ele>
        <time>2023-01-08T20:31:06Z</time>
      </trkpt>
      <trkpt lat="49.07186" lon="1.86318">
        <ele>143</ele>
        <time>2023-01-08T20:31:46Z</time>
      </trkpt>
      <trkpt lat="49.07202" lon="1.86318">
        <ele>142</ele>
        <time>2023-01-08T20:32:07Z</time>
      </trkpt>
      <trkpt lat="49.07247" lon="1.86306">
        <ele>137</ele>
        <time>2023-01-08T20:33:08Z</time>
      </trkpt>
      <trkpt lat="49.07363" lon="1.8625">
        <ele>127</ele>
        <time>2023-01-08T20:35:51Z</time>
      </trkpt>
      <trkpt lat="49.07408" lon="1.86212">
        <ele>127</ele>
        <time>2023-01-08T20:36:59Z</time>
      </trkpt>
      <trkpt lat="49.07439" lon="1.86155">
        <ele>127</ele>
        <time>2023-01-08T20:38:04Z</time>
      </trkpt>
      <trkpt lat="49.07462" lon="1.86125">
        <ele>127</ele>
        <time>2023-01-08T20:38:44Z</time>
      </trkpt>
      <trkpt lat="49.07497" lon="1.86089">
        <ele>126</ele>
        <time>2023-01-08T20:39:41Z</time>
      </trkpt>
      <trkpt lat="49.07504" lon="1.86069">
        <ele>126</ele>
        <time>2023-01-08T20:40:01Z</time>
      </trkpt>
      <trkpt lat="49.07523" lon="1.8605">
        <ele>126</ele>
        <time>2023-01-08T20:40:31Z</time>
      </trkpt>
      <trkpt lat="49.07523" lon="1.86043">
        <ele>126</ele>
        <time>2023-01-08T20:40:37Z</time>
      </trkpt>
      <trkpt lat="49.07522" lon="1.86053">
        <ele>126</ele>
        <time>2023-01-08T20:40:46Z</time>
      </trkpt>
      <trkpt lat="49.07534" lon="1.86068">
        <ele>126</ele>
        <time>2023-01-08T20:41:07Z</time>
      </trkpt>
      <trkpt lat="49.07565" lon="1.8607">
        <ele>125</ele>
        <time>2023-01-08T20:41:48Z</time>
      </trkpt>
      <trkpt lat="49.07574" lon="1.8606">
        <ele>126</ele>
        <time>2023-01-08T20:42:03Z</time>
      </trkpt>
      <trkpt lat="49.0759" lon="1.86065">
        <ele>125</ele>
        <time>2023-01-08T20:42:25Z</time>
      </trkpt>
      <trkpt lat="49.07621" lon="1.86091">
        <ele>124</ele>
        <time>2023-01-08T20:43:12Z</time>
      </trkpt>
      <trkpt lat="49.0764" lon="1.86113">
        <ele>124</ele>
        <time>2023-01-08T20:43:44Z</time>
      </trkpt>
      <trkpt lat="49.07647" lon="1.86134">
        <ele>123</ele>
        <time>2023-01-08T20:44:04Z</time>
      </trkpt>
      <trkpt lat="49.0768" lon="1.86179">
        <ele>123</ele>
        <time>2023-01-08T20:45:03Z</time>
      </trkpt>
      <trkpt lat="49.07699" lon="1.86219">
        <ele>125</ele>
        <time>2023-01-08T20:45:46Z</time>
      </trkpt>
      <trkpt lat="49.07766" lon="1.86322">
        <ele>125</ele>
        <time>2023-01-08T20:47:53Z</time>
      </trkpt>
      <trkpt lat="49.07812" lon="1.86352">
        <ele>120</ele>
        <time>2023-01-08T20:49:00Z</time>
      </trkpt>
      <trkpt lat="49.07855" lon="1.86361">
        <ele>116</ele>
        <time>2023-01-08T20:49:58Z</time>
      </trkpt>
      <trkpt lat="49.07884" lon="1.86376">
        <ele>112</ele>
        <time>2023-01-08T20:50:39Z</time>
      </trkpt>
      <trkpt lat="49.07891" lon="1.86375">
        <ele>111</ele>
        <time>2023-01-08T20:50:48Z</time>
      </trkpt>
      <trkpt lat="49.07899" lon="1.86383">
        <ele>110</ele>
        <time>2023-01-08T20:51:01Z</time>
      </trkpt>
      <trkpt lat="49.07921" lon="1.86448">
        <ele>109</ele>
        <time>2023-01-08T20:52:05Z</time>
      </trkpt>
      <trkpt lat="49.08003" lon="1.86638">
        <ele>105</ele>
        <time>2023-01-08T20:55:24Z</time>
      </trkpt>
      <trkpt lat="49.08018" lon="1.86663">
        <ele>105</ele>
        <time>2023-01-08T20:55:53Z</time>
      </trkpt>
      <trkpt lat="49.0806" lon="1.86712">
        <ele>105</ele>
        <time>2023-01-08T20:57:04Z</time>
      </trkpt>
      <trkpt lat="49.0813" lon="1.86776">
        <ele>105</ele>
        <time>2023-01-08T20:58:53Z</time>
      </trkpt>
      <trkpt lat="49.08198" lon="1.86832">
        <ele>105</ele>
        <time>2023-01-08T21:00:36Z</time>
      </trkpt>
      <trkpt lat="49.0824" lon="1.86849">
        <ele>105</ele>
        <time>2023-01-08T21:01:34Z</time>
      </trkpt>
      <trkpt lat="49.08258" lon="1.86861">
        <ele>104</ele>
        <time>2023-01-08T21:02:00Z</time>
      </trkpt>
      <trkpt lat="49.08274" lon="1.86878">
        <ele>103</ele>
        <time>2023-01-08T21:02:26Z</time>
      </trkpt>
      <trkpt lat="49.08308" lon="1.8693">
        <ele>100</ele>
        <time>2023-01-08T21:03:30Z</time>
      </trkpt>
      <trkpt lat="49.08329" lon="1.86952">
        <ele>99</ele>
        <time>2023-01-08T21:04:04Z</time>
      </trkpt>
      <trkpt lat="49.08369" lon="1.87023">
        <ele>96</ele>
        <time>2023-01-08T21:05:26Z</time>
      </trkpt>
      <trkpt lat="49.08399" lon="1.87052">
        <ele>94</ele>
        <time>2023-01-08T21:06:14Z</time>
      </trkpt>
      <trkpt lat="49.08428" lon="1.87071">
        <ele>93</ele>
        <time>2023-01-08T21:06:56Z</time>
      </trkpt>
      <trkpt lat="49.08491" lon="1.87138">
        <ele>91</ele>
        <time>2023-01-08T21:08:38Z</time>
      </trkpt>
      <trkpt lat="49.08514" lon="1.87187">
        <ele>91</ele>
        <time>2023-01-08T21:09:31Z</time>
      </trkpt>
      <trkpt lat="49.08533" lon="1.87244">
        <ele>90</ele>
        <time>2023-01-08T21:10:27Z</time>
      </trkpt>
      <trkpt lat="49.08548" lon="1.87255">
        <ele>90</ele>
        <time>2023-01-08T21:10:49Z</time>
      </trkpt>
      <trkpt lat="49.08577" lon="1.87258">
        <ele>89</ele>
        <time>2023-01-08T21:11:28Z</time>
      </trkpt>
      <trkpt lat="49.08585" lon="1.87264">
        <ele>89</ele>
        <time>2023-01-08T21:11:40Z</time>
      </trkpt>
      <trkpt lat="49.086" lon="1.87288">
        <ele>89</ele>
        <time>2023-01-08T21:12:09Z</time>
      </trkpt>
      <trkpt lat="49.08615" lon="1.87296">
        <ele>89</ele>
        <time>2023-01-08T21:12:30Z</time>
      </trkpt>
      <trkpt lat="49.087" lon="1.87305">
        <ele>89</ele>
        <time>2023-01-08T21:14:24Z</time>
      </trkpt>
      <trkpt lat="49.08715" lon="1.87303">
        <ele>89</ele>
        <time>2023-01-08T21:14:44Z</time>
      </trkpt>
      <trkpt lat="49.08738" lon="1.87314">
        <ele>89</ele>
        <time>2023-01-08T21:15:16Z</time>
      </trkpt>
      <trkpt lat="49.08768" lon="1.87322">
        <ele>89</ele>
        <time>2023-01-08T21:15:56Z</time>
      </trkpt>
      <trkpt lat="49.08775" lon="1.87328">
        <ele>89</ele>
        <time>2023-01-08T21:16:07Z</time>
      </trkpt>
      <trkpt lat="49.08787" lon="1.87354">
        <ele>89</ele>
        <time>2023-01-08T21:16:35Z</time>
      </trkpt>
      <trkpt lat="49.08818" lon="1.874">
        <ele>89</ele>
        <time>2023-01-08T21:17:33Z</time>
      </trkpt>
      <trkpt lat="49.089" lon="1.87492">
        <ele>92</ele>
        <time>2023-01-08T21:19:48Z</time>
      </trkpt>
      <trkpt lat="49.09013" lon="1.87681">
        <ele>92</ele>
        <time>2023-01-08T21:23:32Z</time>
      </trkpt>
      <trkpt lat="49.09028" lon="1.87719">
        <ele>92</ele>
        <time>2023-01-08T21:24:11Z</time>
      </trkpt>
      <trkpt lat="49.09047" lon="1.87788">
        <ele>92</ele>
        <time>2023-01-08T21:25:16Z</time>
      </trkpt>
      <trkpt lat="49.09052" lon="1.87868">
        <ele>92</ele>
        <time>2023-01-08T21:26:27Z</time>
      </trkpt>
      <trkpt lat="49.09067" lon="1.87879">
        <ele>92</ele>
        <time>2023-01-08T21:26:49Z</time>
      </trkpt>
      <trkpt lat="49.09091" lon="1.87888">
        <ele>92</ele>
        <time>2023-01-08T21:27:22Z</time>
      </trkpt>
      <trkpt lat="49.09123" lon="1.8791">
        <ele>93</ele>
        <time>2023-01-08T21:28:09Z</time>
      </trkpt>
      <trkpt lat="49.09149" lon="1.87936">
        <ele>93</ele>
        <time>2023-01-08T21:28:50Z</time>
      </trkpt>
      <trkpt lat="49.09147" lon="1.87949">
        <ele>93</ele>
        <time>2023-01-08T21:29:02Z</time>
      </trkpt>
      <trkpt lat="49.09115" lon="1.88022">
        <ele>93</ele>
        <time>2023-01-08T21:30:18Z</time>
      </trkpt>
      <trkpt lat="49.09098" lon="1.88093">
        <ele>93</ele>
        <time>2023-01-08T21:31:25Z</time>
      </trkpt>
      <trkpt lat="49.09074" lon="1.88146">
        <ele>92</ele>
        <time>2023-01-08T21:32:21Z</time>
      </trkpt>
      <trkpt lat="49.0903" lon="1.88293">
        <ele>89</ele>
        <time>2023-01-08T21:34:42Z</time>
      </trkpt>
      <trkpt lat="49.09022" lon="1.88334">
        <ele>89</ele>
        <time>2023-01-08T21:35:19Z</time>
      </trkpt>
      <trkpt lat="49.08999" lon="1.88412">
        <ele>89</ele>
        <time>2023-01-08T21:36:34Z</time>
      </trkpt>
      <trkpt lat="49.08977" lon="1.88526">
        <ele>87</ele>
        <time>2023-01-08T21:38:18Z</time>
      </trkpt>
      <trkpt lat="49.0897" lon="1.88545">
        <ele>87</ele>
        <time>2023-01-08T21:38:37Z</time>
      </trkpt>
      <trkpt lat="49.08956" lon="1.88625">
        <ele>86</ele>
        <time>2023-01-08T21:39:50Z</time>
      </trkpt>
      <trkpt lat="49.08954" lon="1.88669">
        <ele>86</ele>
        <time>2023-01-08T21:40:28Z</time>
      </trkpt>
      <trkpt lat="49.08948" lon="1.887">
        <ele>87</ele>
        <time>2023-01-08T21:40:56Z</time>
      </trkpt>
      <trkpt lat="49.0892" lon="1.88782">
        <ele>87</ele>
        <time>2023-01-08T21:42:17Z</time>
      </trkpt>
      <trkpt lat="49.08916" lon="1.8884">
        <ele>87</ele>
        <time>2023-01-08T21:43:08Z</time>
      </trkpt>
      <trkpt lat="49.0889" lon="1.88934">
        <ele>84</ele>
        <time>2023-01-08T21:44:37Z</time>
      </trkpt>
      <trkpt lat="49.08865" lon="1.89007">
        <ele>84</ele>
        <time>2023-01-08T21:45:49Z</time>
      </trkpt>
      <trkpt lat="49.08861" lon="1.89036">
        <ele>85</ele>
        <time>2023-01-08T21:46:15Z</time>
      </trkpt>
      <trkpt lat="49.08817" lon="1.89134">
        <ele>87</ele>
        <time>2023-01-08T21:47:59Z</time>
      </trkpt>
      <trkpt lat="49.08797" lon="1.89159">
        <ele>88</ele>
        <time>2023-01-08T21:48:33Z</time>
      </trkpt>
      <trkpt lat="49.08783" lon="1.89185">
        <ele>88</ele>
        <time>2023-01-08T21:49:03Z</time>
      </trkpt>
      <trkpt lat="49.08774" lon="1.89213">
        <ele>88</ele>
        <time>2023-01-08T21:49:30Z</time>
      </trkpt>
      <trkpt lat="49.08714" lon="1.89332">
        <ele>86</ele>
        <time>2023-01-08T21:51:41Z</time>
      </trkpt>
      <trkpt lat="49.08683" lon="1.89425">
        <ele>84</ele>
        <time>2023-01-08T21:53:13Z</time>
      </trkpt>
      <trkpt lat="49.08667" lon="1.89541">
        <ele>81</ele>
        <time>2023-01-08T21:54:56Z</time>
      </trkpt>
      <trkpt lat="49.08681" lon="1.89548">
        <ele>81</ele>
        <time>2023-01-08T21:55:16Z</time>
      </trkpt>
      <trkpt lat="49.08684" lon="1.89559">
        <ele>80</ele>
        <time>2023-01-08T21:55:26Z</time>
      </trkpt>
      <trkpt lat="49.0867" lon="1.89607">
        <ele>79</ele>
        <time>2023-01-08T21:56:12Z</time>
      </trkpt>
      <trkpt lat="49.08662" lon="1.89679">
        <ele>78</ele>
        <time>2023-01-08T21:57:16Z</time>
      </trkpt>
      <trkpt lat="49.08655" lon="1.89688">
        <ele>78</ele>
        <time>2023-01-08T21:57:28Z</time>
      </trkpt>
      <trkpt lat="49.08633" lon="1.89693">
        <ele>78</ele>
        <time>2023-01-08T21:57:58Z</time>
      </trkpt>
      <trkpt lat="49.08605" lon="1.89685">
        <ele>77</ele>
        <time>2023-01-08T21:58:36Z</time>
      </trkpt>
      <trkpt lat="49.08573" lon="1.89666">
        <ele>77</ele>
        <time>2023-01-08T21:59:22Z</time>
      </trkpt>
      <trkpt lat="49.08548" lon="1.8966">
        <ele>78</ele>
        <time>2023-01-08T21:59:56Z</time>
      </trkpt>
      <trkpt lat="49.08533" lon="1.8967">
        <ele>78</ele>
        <time>2023-01-08T22:00:17Z</time>
      </trkpt>
      <trkpt lat="49.08501" lon="1.89751">
        <ele>77</ele>
        <time>2023-01-08T22:01:40Z</time>
      </trkpt>
      <trkpt lat="49.08485" lon="1.89775">
        <ele>77</ele>
        <time>2023-01-08T22:02:10Z</time>
      </trkpt>
      <trkpt lat="49.08466" lon="1.89771">
        <ele>77</ele>
        <time>2023-01-08T22:02:36Z</time>
      </trkpt>
      <trkpt lat="49.08443" lon="1.89759">
        <ele>77</ele>
        <time>2023-01-08T22:03:08Z</time>
      </trkpt>
      <trkpt lat="49.08422" lon="1.89761">
        <ele>77</ele>
        <time>2023-01-08T22:03:36Z</time>
      </trkpt>
      <trkpt lat="49.08418" lon="1.89766">
        <ele>76</ele>
        <time>2023-01-08T22:03:43Z</time>
      </trkpt>
      <trkpt lat="49.08396" lon="1.89838">
        <ele>75</ele>
        <time>2023-01-08T22:04:52Z</time>
      </trkpt>
      <trkpt lat="49.08394" lon="1.89883">
        <ele>75</ele>
        <time>2023-01-08T22:05:32Z</time>
      </trkpt>
      <trkpt lat="49.08385" lon="1.89938">
        <ele>75</ele>
        <time>2023-01-08T22:06:21Z</time>
      </trkpt>
      <trkpt lat="49.08375" lon="1.89962">
        <ele>74</ele>
        <time>2023-01-08T22:06:46Z</time>
      </trkpt>
      <trkpt lat="49.08367" lon="1.90001">
        <ele>74</ele>
        <time>2023-01-08T22:07:22Z</time>
      </trkpt>
      <trkpt lat="49.0835" lon="1.90051">
        <ele>75</ele>
        <time>2023-01-08T22:08:11Z</time>
      </trkpt>
      <trkpt lat="49.08343" lon="1.9009">
        <ele>75</ele>
        <time>2023-01-08T22:08:47Z</time>
      </trkpt>
      <trkpt lat="49.08315" lon="1.90171">
        <ele>74</ele>
        <time>2023-01-08T22:10:07Z</time>
      </trkpt>
      <trkpt lat="49.08297" lon="1.90244">
        <ele>75</ele>
        <time>2023-01-08T22:11:15Z</time>
      </trkpt>
      <trkpt lat="49.08279" lon="1.90289">
        <ele>75</ele>
        <time>2023-01-08T22:12:01Z</time>
      </trkpt>
      <trkpt lat="49.0824" lon="1.90437">
        <ele>74</ele>
        <time>2023-01-08T22:14:20Z</time>
      </trkpt>
      <trkpt lat="49.08229" lon="1.90462">
        <ele>74</ele>
        <time>2023-01-08T22:14:47Z</time>
      </trkpt>
      <trkpt lat="49.08189" lon="1.90593">
        <ele>75</ele>
        <time>2023-01-08T22:16:53Z</time>
      </trkpt>
      <trkpt lat="49.0818" lon="1.9064">
        <ele>74</ele>
        <time>2023-01-08T22:17:36Z</time>
      </trkpt>
      <trkpt lat="49.0811" lon="1.90842">
        <ele>73</ele>
        <time>2023-01-08T22:20:56Z</time>
      </trkpt>
      <trkpt lat="49.08053" lon="1.90974">
        <ele>70</ele>
        <time>2023-01-08T22:23:14Z</time>
      </trkpt>
      <trkpt lat="49.07978" lon="1.91096">
        <ele>69</ele>
        <time>2023-01-08T22:25:40Z</time>
      </trkpt>
      <trkpt lat="49.07941" lon="1.91143">
        <ele>68</ele>
        <time>2023-01-08T22:26:44Z</time>
      </trkpt>
      <trkpt lat="49.07872" lon="1.91206">
        <ele>68</ele>
        <time>2023-01-08T22:28:31Z</time>
      </trkpt>
      <trkpt lat="49.07845" lon="1.91226">
        <ele>68</ele>
        <time>2023-01-08T22:29:12Z</time>
      </trkpt>
      <trkpt lat="49.07821" lon="1.91255">
        <ele>68</ele>
        <time>2023-01-08T22:29:52Z</time>
      </trkpt>
      <trkpt lat="49.0772" lon="1.91349">
        <ele>68</ele>
        <time>2023-01-08T22:32:30Z</time>
      </trkpt>
      <trkpt lat="49.07685" lon="1.91393">
        <ele>68</ele>
        <time>2023-01-08T22:33:31Z</time>
      </trkpt>
      <trkpt lat="49.07662" lon="1.91441">
        <ele>68</ele>
        <time>2023-01-08T22:34:23Z</time>
      </trkpt>
      <trkpt lat="49.0766" lon="1.91443">
        <ele>68</ele>
        <time>2023-01-08T22:34:26Z</time>
      </trkpt>
      <trkpt lat="49.07657" lon="1.91439">
        <ele>68</ele>
        <time>2023-01-08T22:34:31Z</time>
      </trkpt>
      <trkpt lat="49.07656" lon="1.91451">
        <ele>68</ele>
        <time>2023-01-08T22:34:42Z</time>
      </trkpt>
      <trkpt lat="49.07633" lon="1.9151">
        <ele>69</ele>
        <time>2023-01-08T22:35:42Z</time>
      </trkpt>
      <trkpt lat="49.07609" lon="1.91595">
        <ele>70</ele>
        <time>2023-01-08T22:37:03Z</time>
      </trkpt>
      <trkpt lat="49.07567" lon="1.91703">
        <ele>72</ele>
        <time>2023-01-08T22:38:53Z</time>
      </trkpt>
      <trkpt lat="49.07545" lon="1.91778">
        <ele>73</ele>
        <time>2023-01-08T22:40:04Z</time>
      </trkpt>
      <trkpt lat="49.07496" lon="1.91894">
        <ele>75</ele>
        <time>2023-01-08T22:42:05Z</time>
      </trkpt>
      <trkpt lat="49.07479" lon="1.91952">
        <ele>77</ele>
        <time>2023-01-08T22:43:01Z</time>
      </trkpt>
      <trkpt lat="49.07473" lon="1.91961">
        <ele>77</ele>
        <time>2023-01-08T22:43:12Z</time>
      </trkpt>
      <trkpt lat="49.07462" lon="1.91958">
        <ele>77</ele>
        <time>2023-01-08T22:43:27Z</time>
      </trkpt>
      <trkpt lat="49.07483" lon="1.91959">
        <ele>77</ele>
        <time>2023-01-08T22:43:55Z</time>
      </trkpt>
      <trkpt lat="49.07486" lon="1.91969">
        <ele>78</ele>
        <time>2023-01-08T22:44:04Z</time>
      </trkpt>
      <trkpt lat="49.0748" lon="1.91966">
        <ele>77</ele>
        <time>2023-01-08T22:44:13Z</time>
      </trkpt>
      <trkpt lat="49.07486" lon="1.91957">
        <ele>77</ele>
        <time>2023-01-08T22:44:24Z</time>
      </trkpt>
      <trkpt lat="49.07466" lon="1.91963">
        <ele>77</ele>
        <time>2023-01-08T22:44:51Z</time>
      </trkpt>
      <trkpt lat="49.07457" lon="1.91944">
        <ele>76</ele>
        <time>2023-01-08T22:45:12Z</time>
      </trkpt>
      <trkpt lat="49.07456" lon="1.9193">
        <ele>76</ele>
        <time>2023-01-08T22:45:24Z</time>
      </trkpt>
      <trkpt lat="49.07469" lon="1.9195">
        <ele>77</ele>
        <time>2023-01-08T22:45:49Z</time>
      </trkpt>
      <trkpt lat="49.07472" lon="1.91977">
        <ele>78</ele>
        <time>2023-01-08T22:46:13Z</time>
      </trkpt>
      <trkpt lat="49.07472" lon="1.91959">
        <ele>77</ele>
        <time>2023-01-08T22:46:28Z</time>
      </trkpt>
      <trkpt lat="49.07473" lon="1.91984">
        <ele>78</ele>
        <time>2023-01-08T22:46:50Z</time>
      </trkpt>
      <trkpt lat="49.07473" lon="1.91973">
        <ele>78</ele>
        <time>2023-01-08T22:47:00Z</time>
      </trkpt>
      <trkpt lat="49.07477" lon="1.91969">
        <ele>78</ele>
        <time>2023-01-08T22:47:06Z</time>
      </trkpt>
      <trkpt lat="49.07473" lon="1.91966">
        <ele>77</ele>
        <time>2023-01-08T22:47:12Z</time>
      </trkpt>
      <trkpt lat="49.07488" lon="1.91971">
        <ele>78</ele>
        <time>2023-01-08T22:47:33Z</time>
      </trkpt>
      <trkpt lat="49.07494" lon="1.91964">
        <ele>78</ele>
        <time>2023-01-08T22:47:43Z</time>
      </trkpt>
      <trkpt lat="49.07504" lon="1.91961">
        <ele>77</ele>
        <time>2023-01-08T22:47:56Z</time>
      </trkpt>
      <trkpt lat="49.07481" lon="1.91962">
        <ele>77</ele>
        <time>2023-01-08T22:48:27Z</time>
      </trkpt>
      <trkpt lat="49.07482" lon="1.91996">
        <ele>79</ele>
        <time>2023-01-08T22:48:57Z</time>
      </trkpt>
      <trkpt lat="49.07462" lon="1.92052">
        <ele>80</ele>
        <time>2023-01-08T22:49:53Z</time>
      </trkpt>
      <trkpt lat="49.07406" lon="1.92297">
        <ele>75</ele>
        <time>2023-01-08T22:53:39Z</time>
      </trkpt>
      <trkpt lat="49.07369" lon="1.92433">
        <ele>74</ele>
        <time>2023-01-08T22:55:48Z</time>
      </trkpt>
      <trkpt lat="49.07364" lon="1.9248">
        <ele>73</ele>
        <time>2023-01-08T22:56:30Z</time>
      </trkpt>
      <trkpt lat="49.07339" lon="1.92566">
        <ele>69</ele>
        <time>2023-01-08T22:57:52Z</time>
      </trkpt>
      <trkpt lat="49.07293" lon="1.92619">
        <ele>66</ele>
        <time>2023-01-08T22:59:09Z</time>
      </trkpt>
      <trkpt lat="49.07261" lon="1.92664">
        <ele>64</ele>
        <time>2023-01-08T23:00:07Z</time>
      </trkpt>
      <trkpt lat="49.07129" lon="1.92811">
        <ele>64</ele>
        <time>2023-01-08T23:03:45Z</time>
      </trkpt>
      <trkpt lat="49.07098" lon="1.92858">
        <ele>68</ele>
        <time>2023-01-08T23:04:43Z</time>
      </trkpt>
      <trkpt lat="49.07068" lon="1.92888">
        <ele>70</ele>
        <time>2023-01-08T23:05:31Z</time>
      </trkpt>
      <trkpt lat="49.07045" lon="1.92919">
        <ele>72</ele>
        <time>2023-01-08T23:06:12Z</time>
      </trkpt>
      <trkpt lat="49.06981" lon="1.92984">
        <ele>76</ele>
        <time>2023-01-08T23:07:55Z</time>
      </trkpt>
      <trkpt lat="49.06943" lon="1.9303">
        <ele>79</ele>
        <time>2023-01-08T23:08:59Z</time>
      </trkpt>
      <trkpt lat="49.06917" lon="1.93051">
        <ele>80</ele>
        <time>2023-01-08T23:09:39Z</time>
      </trkpt>
      <trkpt lat="49.06892" lon="1.93081">
        <ele>83</ele>
        <time>2023-01-08T23:10:21Z</time>
      </trkpt>
      <trkpt lat="49.06853" lon="1.93116">
        <ele>87</ele>
        <time>2023-01-08T23:11:21Z</time>
      </trkpt>
      <trkpt lat="49.06831" lon="1.93147">
        <ele>88</ele>
        <time>2023-01-08T23:12:01Z</time>
      </trkpt>
      <trkpt lat="49.06789" lon="1.93192">
        <ele>89</ele>
        <time>2023-01-08T23:13:10Z</time>
      </trkpt>
      <trkpt lat="49.06769" lon="1.9324">
        <ele>87</ele>
        <time>2023-01-08T23:14:00Z</time>
      </trkpt>
      <trkpt lat="49.0675" lon="1.93271">
        <ele>86</ele>
        <time>2023-01-08T23:14:37Z</time>
      </trkpt>
      <trkpt lat="49.06697" lon="1.9332">
        <ele>79</ele>
        <time>2023-01-08T23:15:59Z</time>
      </trkpt>
      <trkpt lat="49.06691" lon="1.93331">
        <ele>78</ele>
        <time>2023-01-08T23:16:12Z</time>
      </trkpt>
      <trkpt lat="49.06662" lon="1.93348">
        <ele>75</ele>
        <time>2023-01-08T23:16:53Z</time>
      </trkpt>
      <trkpt lat="49.06601" lon="1.93365">
        <ele>70</ele>
        <time>2023-01-08T23:18:16Z</time>
      </trkpt>
      <trkpt lat="49.06515" lon="1.93402">
        <ele>64</ele>
        <time>2023-01-08T23:20:15Z</time>
      </trkpt>
      <trkpt lat="49.06494" lon="1.934">
        <ele>62</ele>
        <time>2023-01-08T23:20:43Z</time>
      </trkpt>
      <trkpt lat="49.06471" lon="1.93386">
        <ele>60</ele>
        <time>2023-01-08T23:21:17Z</time>
      </trkpt>
      <trkpt lat="49.06444" lon="1.93408">
        <ele>59</ele>
        <time>2023-01-08T23:21:57Z</time>
      </trkpt>
      <trkpt lat="49.06434" lon="1.93423">
        <ele>58</ele>
        <time>2023-01-08T23:22:16Z</time>
      </trkpt>
      <trkpt lat="49.06407" lon="1.93441">
        <ele>56</ele>
        <time>2023-01-08T23:22:55Z</time>
      </trkpt>
      <trkpt lat="49.064" lon="1.93444">
        <ele>56</ele>
        <time>2023-01-08T23:23:05Z</time>
      </trkpt>
      <trkpt lat="49.0638" lon="1.93438">
        <ele>56</ele>
        <time>2023-01-08T23:23:32Z</time>
      </trkpt>
      <trkpt lat="49.06373" lon="1.93445">
        <ele>56</ele>
        <time>2023-01-08T23:23:43Z</time>
      </trkpt>
      <trkpt lat="49.06333" lon="1.93465">
        <ele>56</ele>
        <time>2023-01-08T23:24:40Z</time>
      </trkpt>
      <trkpt lat="49.06302" lon="1.93456">
        <ele>56</ele>
        <time>2023-01-08T23:25:22Z</time>
      </trkpt>
      <trkpt lat="49.06283" lon="1.93443">
        <ele>55</ele>
        <time>2023-01-08T23:25:50Z</time>
      </trkpt>
      <trkpt lat="49.0623" lon="1.93418">
        <ele>54</ele>
        <time>2023-01-08T23:27:04Z</time>
      </trkpt>
      <trkpt lat="49.06192" lon="1.93421">
        <ele>55</ele>
        <time>2023-01-08T23:27:54Z</time>
      </trkpt>
      <trkpt lat="49.06175" lon="1.93413">
        <ele>55</ele>
        <time>2023-01-08T23:28:18Z</time>
      </trkpt>
      <trkpt lat="49.06135" lon="1.93404">
        <ele>54</ele>
        <time>2023-01-08T23:29:12Z</time>
      </trkpt>
      <trkpt lat="49.06112" lon="1.93414">
        <ele>54</ele>
        <time>2023-01-08T23:29:44Z</time>
      </trkpt>
      <trkpt lat="49.061" lon="1.93432">
        <ele>56</ele>
        <time>2023-01-08T23:30:06Z</time>
      </trkpt>
      <trkpt lat="49.06093" lon="1.93433">
        <ele>56</ele>
        <time>2023-01-08T23:30:16Z</time>
      </trkpt>
      <trkpt lat="49.06058" lon="1.93416">
        <ele>54</ele>
        <time>2023-01-08T23:31:05Z</time>
      </trkpt>
      <trkpt lat="49.05998" lon="1.93407">
        <ele>53</ele>
        <time>2023-01-08T23:32:25Z</time>
      </trkpt>
      <trkpt lat="49.0597" lon="1.93397">
        <ele>52</ele>
        <time>2023-01-08T23:33:04Z</time>
      </trkpt>
      <trkpt lat="49.05965" lon="1.93376">
        <ele>51</ele>
        <time>2023-01-08T23:33:23Z</time>
      </trkpt>
      <trkpt lat="49.05965" lon="1.93346">
        <ele>50</ele>
        <time>2023-01-08T23:33:49Z</time>
      </trkpt>
      <trkpt lat="49.05974" lon="1.93248">
        <ele>53</ele>
        <time>2023-01-08T23:35:16Z</time>
      </trkpt>
      <trkpt lat="49.05973" lon="1.93173">
        <ele>57</ele>
        <time>2023-01-08T23:36:22Z</time>
      </trkpt>
      <trkpt lat="49.0596" lon="1.93118">
        <ele>59</ele>
        <time>2023-01-08T23:37:13Z</time>
      </trkpt>
      <trkpt lat="49.05959" lon="1.93095">
        <ele>60</ele>
        <time>2023-01-08T23:37:33Z</time>
      </trkpt>
      <trkpt lat="49.05937" lon="1.93038">
        <ele>61</ele>
        <time>2023-01-08T23:38:31Z</time>
      </trkpt>
      <trkpt lat="49.05929" lon="1.92987">
        <ele>63</ele>
        <time>2023-01-08T23:39:16Z</time>
      </trkpt>
      <trkpt lat="49.0591" lon="1.92944">
        <ele>64</ele>
        <time>2023-01-08T23:40:02Z</time>
      </trkpt>
      <trkpt lat="49.05834" lon="1.92846">
        <ele>65</ele>
        <time>2023-01-08T23:42:15Z</time>
      </trkpt>
      <trkpt lat="49.05811" lon="1.9281">
        <ele>65</ele>
        <time>2023-01-08T23:42:59Z</time>
      </trkpt>
      <trkpt lat="49.05686" lon="1.9267">
        <ele>72</ele>
        <time>2023-01-08T23:46:26Z</time>
      </trkpt>
      <trkpt lat="49.05674" lon="1.92625">
        <ele>74</ele>
        <time>2023-01-08T23:47:08Z</time>
      </trkpt>
      <trkpt lat="49.05646" lon="1.92589">
        <ele>79</ele>
        <time>2023-01-08T23:47:57Z</time>
      </trkpt>
      <trkpt lat="49.05638" lon="1.92564">
        <ele>81</ele>
        <time>2023-01-08T23:48:21Z</time>
      </trkpt>
      <trkpt lat="49.05624" lon="1.92551">
        <ele>84</ele>
        <time>2023-01-08T23:48:43Z</time>
      </trkpt>
      <trkpt lat="49.05609" lon="1.92526">
        <ele>88</ele>
        <time>2023-01-08T23:49:13Z</time>
      </trkpt>
      <trkpt lat="49.05609" lon="1.92504">
        <ele>89</ele>
        <time>2023-01-08T23:49:32Z</time>
      </trkpt>
      <trkpt lat="49.05605" lon="1.92491">
        <ele>90</ele>
        <time>2023-01-08T23:49:44Z</time>
      </trkpt>
      <trkpt lat="49.05592" lon="1.92477">
        <ele>92</ele>
        <time>2023-01-08T23:50:06Z</time>
      </trkpt>
      <trkpt lat="49.05584" lon="1.9242">
        <ele>96</ele>
        <time>2023-01-08T23:50:57Z</time>
      </trkpt>
      <trkpt lat="49.05572" lon="1.92386">
        <ele>97</ele>
        <time>2023-01-08T23:51:30Z</time>
      </trkpt>
      <trkpt lat="49.0555" lon="1.92361">
        <ele>98</ele>
        <time>2023-01-08T23:52:07Z</time>
      </trkpt>
      <trkpt lat="49.05537" lon="1.92326">
        <ele>99</ele>
        <time>2023-01-08T23:52:42Z</time>
      </trkpt>
      <trkpt lat="49.05511" lon="1.9228">
        <ele>100</ele>
        <time>2023-01-08T23:53:35Z</time>
      </trkpt>
      <trkpt lat="49.05511" lon="1.92266">
        <ele>101</ele>
        <time>2023-01-08T23:53:48Z</time>
      </trkpt>
      <trkpt lat="49.05523" lon="1.92237">
        <ele>101</ele>
        <time>2023-01-08T23:54:18Z</time>
      </trkpt>
      <trkpt lat="49.05553" lon="1.92175">
        <ele>102</ele>
        <time>2023-01-08T23:55:25Z</time>
      </trkpt>
      <trkpt lat="49.05563" lon="1.92163">
        <ele>103</ele>
        <time>2023-01-08T23:55:42Z</time>
      </trkpt>
      <trkpt lat="49.05628" lon="1.92017">
        <ele>106</ele>
        <time>2023-01-08T23:58:16Z</time>
      </trkpt>
      <trkpt lat="49.05654" lon="1.91972">
        <ele>106</ele>
        <time>2023-01-08T23:59:09Z</time>
      </trkpt>
      <trkpt lat="49.05657" lon="1.91953">
        <ele>106</ele>
        <time>2023-01-08T23:59:26Z</time>
      </trkpt>
      <trkpt lat="49.05652" lon="1.91942">
        <ele>106</ele>
        <time>2023-01-08T23:59:38Z</time>
      </trkpt>
      <trkpt lat="49.05619" lon="1.91907">
        <ele>105</ele>
        <time>2023-01-09T00:00:31Z</time>
      </trkpt>
      <trkpt lat="49.05552" lon="1.91867">
        <ele>104</ele>
        <time>2023-01-09T00:02:07Z</time>
      </trkpt>
      <trkpt lat="49.05499" lon="1.91826">
        <ele>103</ele>
        <time>2023-01-09T00:03:27Z</time>
      </trkpt>
      <trkpt lat="49.05466" lon="1.91809">
        <ele>102</ele>
        <time>2023-01-09T00:04:13Z</time>
      </trkpt>
      <trkpt lat="49.05379" lon="1.91738">
        <ele>98</ele>
        <time>2023-01-09T00:06:25Z</time>
      </trkpt>
      <trkpt lat="49.05372" lon="1.9174">
        <ele>98</ele>
        <time>2023-01-09T00:06:34Z</time>
      </trkpt>
      <trkpt lat="49.05355" lon="1.91735">
        <ele>97</ele>
        <time>2023-01-09T00:06:57Z</time>
      </trkpt>
      <trkpt lat="49.05268" lon="1.91694">
        <ele>94</ele>
        <time>2023-01-09T00:08:59Z</time>
      </trkpt>
      <trkpt lat="49.05187" lon="1.91644">
        <ele>93</ele>
        <time>2023-01-09T00:10:55Z</time>
      </trkpt>
      <trkpt lat="49.05091" lon="1.91615">
        <ele>93</ele>
        <time>2023-01-09T00:13:06Z</time>
      </trkpt>
      <trkpt lat="49.05064" lon="1.91597">
        <ele>94</ele>
        <time>2023-01-09T00:13:45Z</time>
      </trkpt>
      <trkpt lat="49.05054" lon="1.91597">
        <ele>94</ele>
        <time>2023-01-09T00:13:59Z</time>
      </trkpt>
      <trkpt lat="49.05009" lon="1.9158">
        <ele>95</ele>
        <time>2023-01-09T00:15:01Z</time>
      </trkpt>
      <trkpt lat="49.04876" lon="1.91546">
        <ele>97</ele>
        <time>2023-01-09T00:18:00Z</time>
      </trkpt>
      <trkpt lat="49.04784" lon="1.91505">
        <ele>100</ele>
        <time>2023-01-09T00:20:08Z</time>
      </trkpt>
      <trkpt lat="49.04728" lon="1.91488">
        <ele>103</ele>
        <time>2023-01-09T00:21:25Z</time>
      </trkpt>
      <trkpt lat="49.04709" lon="1.91476">
        <ele>104</ele>
        <time>2023-01-09T00:21:52Z</time>
      </trkpt>
      <trkpt lat="49.04624" lon="1.91438">
        <ele>108</ele>
        <time>2023-01-09T00:23:50Z</time>
      </trkpt>
      <trkpt lat="49.04592" lon="1.91426">
        <ele>109</ele>
        <time>2023-01-09T00:24:34Z</time>
      </trkpt>
      <trkpt lat="49.04587" lon="1.91429">
        <ele>109</ele>
        <time>2023-01-09T00:24:41Z</time>
      </trkpt>
      <trkpt lat="49.04585" lon="1.91423">
        <ele>109</ele>
        <time>2023-01-09T00:24:47Z</time>
      </trkpt>
      <trkpt lat="49.04566" lon="1.91409">
        <ele>110</ele>
        <time>2023-01-09T00:25:15Z</time>
      </trkpt>
      <trkpt lat="49.0448" lon="1.91373">
        <ele>114</ele>
        <time>2023-01-09T00:27:14Z</time>
      </trkpt>
      <trkpt lat="49.04402" lon="1.9133">
        <ele>116</ele>
        <time>2023-01-09T00:29:05Z</time>
      </trkpt>
      <trkpt lat="49.04363" lon="1.91321">
        <ele>118</ele>
        <time>2023-01-09T00:29:58Z</time>
      </trkpt>
      <trkpt lat="49.04344" lon="1.91309">
        <ele>119</ele>
        <time>2023-01-09T00:30:25Z</time>
      </trkpt>
      <trkpt lat="49.04294" lon="1.9129">
        <ele>120</ele>
        <time>2023-01-09T00:31:34Z</time>
      </trkpt>
      <trkpt lat="49.04284" lon="1.91288">
        <ele>120</ele>
        <time>2023-01-09T00:31:47Z</time>
      </trkpt>
      <trkpt lat="49.04267" lon="1.91293">
        <ele>121</ele>
        <time>2023-01-09T00:32:10Z</time>
      </trkpt>
      <trkpt lat="49.04236" lon="1.91282">
        <ele>121</ele>
        <time>2023-01-09T00:32:53Z</time>
      </trkpt>
      <trkpt lat="49.04022" lon="1.91173">
        <ele>122</ele>
        <time>2023-01-09T00:37:54Z</time>
      </trkpt>
      <trkpt lat="49.03874" lon="1.91113">
        <ele>118</ele>
        <time>2023-01-09T00:41:18Z</time>
      </trkpt>
      <trkpt lat="49.03704" lon="1.9102">
        <ele>113</ele>
        <time>2023-01-09T00:45:19Z</time>
      </trkpt>
      <trkpt lat="49.03667" lon="1.90982">
        <ele>111</ele>
        <time>2023-01-09T00:46:19Z</time>
      </trkpt>
      <trkpt lat="49.03632" lon="1.90918">
        <ele>110</ele>
        <time>2023-01-09T00:47:32Z</time>
      </trkpt>
      <trkpt lat="49.03566" lon="1.90774">
        <ele>107</ele>
        <time>2023-01-09T00:50:06Z</time>
      </trkpt>
      <trkpt lat="49.03543" lon="1.90733">
        <ele>106</ele>
        <time>2023-01-09T00:50:53Z</time>
      </trkpt>
      <trkpt lat="49.03501" lon="1.90675">
        <ele>103</ele>
        <time>2023-01-09T00:52:08Z</time>
      </trkpt>
      <trkpt lat="49.03437" lon="1.90608">
        <ele>100</ele>
        <time>2023-01-09T00:53:52Z</time>
      </trkpt>
      <trkpt lat="49.03364" lon="1.90502">
        <ele>97</ele>
        <time>2023-01-09T00:56:06Z</time>
      </trkpt>
      <trkpt lat="49.03331" lon="1.9043">
        <ele>94</ele>
        <time>2023-01-09T00:57:23Z</time>
      </trkpt>
      <trkpt lat="49.03284" lon="1.90348">
        <ele>93</ele>
        <time>2023-01-09T00:58:59Z</time>
      </trkpt>
      <trkpt lat="49.03245" lon="1.90264">
        <ele>92</ele>
        <time>2023-01-09T01:00:29Z</time>
      </trkpt>
      <trkpt lat="49.03213" lon="1.90214">
        <ele>90</ele>
        <time>2023-01-09T01:01:30Z</time>
      </trkpt>
      <trkpt lat="49.03214" lon="1.90199">
        <ele>90</ele>
        <time>2023-01-09T01:01:43Z</time>
      </trkpt>
      <trkpt lat="49.03238" lon="1.90162">
        <ele>91</ele>
        <time>2023-01-09T01:02:29Z</time>
      </trkpt>
      <trkpt lat="49.03237" lon="1.90141">
        <ele>90</ele>
        <time>2023-01-09T01:02:47Z</time>
      </trkpt>
      <trkpt lat="49.03215" lon="1.90108">
        <ele>89</ele>
        <time>2023-01-09T01:03:28Z</time>
      </trkpt>
      <trkpt lat="49.03204" lon="1.90076">
        <ele>88</ele>
        <time>2023-01-09T01:04:00Z</time>
      </trkpt>
      <trkpt lat="49.03149" lon="1.8985">
        <ele>88</ele>
        <time>2023-01-09T01:07:31Z</time>
      </trkpt>
      <trkpt lat="49.03135" lon="1.89819">
        <ele>88</ele>
        <time>2023-01-09T01:08:04Z</time>
      </trkpt>
      <trkpt lat="49.03073" lon="1.89642">
        <ele>92</ele>
        <time>2023-01-09T01:10:59Z</time>
      </trkpt>
      <trkpt lat="49.03027" lon="1.89549">
        <ele>91</ele>
        <time>2023-01-09T01:12:41Z</time>
      </trkpt>
      <trkpt lat="49.02911" lon="1.89221">
        <ele>90</ele>
        <time>2023-01-09T01:18:07Z</time>
      </trkpt>
      <trkpt lat="49.02873" lon="1.89131">
        <ele>90</ele>
        <time>2023-01-09T01:19:41Z</time>
      </trkpt>
      <trkpt lat="49.02825" lon="1.89">
        <ele>92</ele>
        <time>2023-01-09T01:21:52Z</time>
      </trkpt>
      <trkpt lat="49.02813" lon="1.8895">
        <ele>93</ele>
        <time>2023-01-09T01:22:39Z</time>
      </trkpt>
      <trkpt lat="49.02777" lon="1.88841">
        <ele>92</ele>
        <time>2023-01-09T01:24:26Z</time>
      </trkpt>
      <trkpt lat="49.02773" lon="1.88792">
        <ele>89</ele>
        <time>2023-01-09T01:25:09Z</time>
      </trkpt>
      <trkpt lat="49.0278" lon="1.8876">
        <ele>87</ele>
        <time>2023-01-09T01:25:38Z</time>
      </trkpt>
      <trkpt lat="49.0278" lon="1.88741">
        <ele>86</ele>
        <time>2023-01-09T01:25:55Z</time>
      </trkpt>
      <trkpt lat="49.02773" lon="1.88736">
        <ele>85</ele>
        <time>2023-01-09T01:26:05Z</time>
      </trkpt>
      <trkpt lat="49.02736" lon="1.88756">
        <ele>83</ele>
        <time>2023-01-09T01:26:58Z</time>
      </trkpt>
      <trkpt lat="49.02713" lon="1.88761">
        <ele>81</ele>
        <time>2023-01-09T01:27:29Z</time>
      </trkpt>
      <trkpt lat="49.02709" lon="1.88757">
        <ele>81</ele>
        <time>2023-01-09T01:27:35Z</time>
      </trkpt>
      <trkpt lat="49.02725" lon="1.88722">
        <ele>80</ele>
        <time>2023-01-09T01:28:12Z</time>
      </trkpt>
      <trkpt lat="49.02743" lon="1.88624">
        <ele>79</ele>
        <time>2023-01-09T01:29:41Z</time>
      </trkpt>
      <trkpt lat="49.0274" lon="1.88598">
        <ele>77</ele>
        <time>2023-01-09T01:30:04Z</time>
      </trkpt>
      <trkpt lat="49.02742" lon="1.8856">
        <ele>77</ele>
        <time>2023-01-09T01:30:38Z</time>
      </trkpt>
      <trkpt lat="49.02714" lon="1.884">
        <ele>77</ele>
        <time>2023-01-09T01:33:03Z</time>
      </trkpt>
      <trkpt lat="49.02715" lon="1.88367">
        <ele>79</ele>
        <time>2023-01-09T01:33:32Z</time>
      </trkpt>
      <trkpt lat="49.02704" lon="1.88332">
        <ele>79</ele>
        <time>2023-01-09T01:34:06Z</time>
      </trkpt>
      <trkpt lat="49.02704" lon="1.88251">
        <ele>81</ele>
        <time>2023-01-09T01:35:16Z</time>
      </trkpt>
      <trkpt lat="49.0271" lon="1.88179">
        <ele>83</ele>
        <time>2023-01-09T01:36:20Z</time>
      </trkpt>
      <trkpt lat="49.0273" lon="1.88085">
        <ele>85</ele>
        <time>2023-01-09T01:37:46Z</time>
      </trkpt>
      <trkpt lat="49.02737" lon="1.88006">
        <ele>86</ele>
        <time>2023-01-09T01:38:56Z</time>
      </trkpt>
      <trkpt lat="49.02752" lon="1.87926">
        <ele>85</ele>
        <time>2023-01-09T01:40:09Z</time>
      </trkpt>
      <trkpt lat="49.02763" lon="1.87905">
        <ele>85</ele>
        <time>2023-01-09T01:40:32Z</time>
      </trkpt>
      <trkpt lat="49.02786" lon="1.87834">
        <ele>85</ele>
        <time>2023-01-09T01:41:42Z</time>
      </trkpt>
      <trkpt lat="49.0282" lon="1.8775">
        <ele>83</ele>
        <time>2023-01-09T01:43:08Z</time>
      </trkpt>
      <trkpt lat="49.02848" lon="1.87699">
        <ele>81</ele>
        <time>2023-01-09T01:44:06Z</time>
      </trkpt>
      <trkpt lat="49.02879" lon="1.87654">
        <ele>79</ele>
        <time>2023-01-09T01:45:03Z</time>
      </trkpt>
      <trkpt lat="49.02882" lon="1.87643">
        <ele>78</ele>
        <time>2023-01-09T01:45:14Z</time>
      </trkpt>
      <trkpt lat="49.0289" lon="1.87637">
        <ele>78</ele>
        <time>2023-01-09T01:45:26Z</time>
      </trkpt>
      <trkpt lat="49.02918" lon="1.8764">
        <ele>81</ele>
        <time>2023-01-09T01:46:03Z</time>
      </trkpt>
      <trkpt lat="49.0295" lon="1.8765">
        <ele>86</ele>
        <time>2023-01-09T01:46:47Z</time>
      </trkpt>
      <trkpt lat="49.03003" lon="1.87652">
        <ele>92</ele>
        <time>2023-01-09T01:47:58Z</time>
      </trkpt>
      <trkpt lat="49.03037" lon="1.87666">
        <ele>94</ele>
        <time>2023-01-09T01:48:45Z</time>
      </trkpt>
      <trkpt lat="49.03061" lon="1.87671">
        <ele>95</ele>
        <time>2023-01-09T01:49:17Z</time>
      </trkpt>
      <trkpt lat="49.03087" lon="1.87683">
        <ele>96</ele>
        <time>2023-01-09T01:49:53Z</time>
      </trkpt>
      <trkpt lat="49.03161" lon="1.87743">
        <ele>96</ele>
        <time>2023-01-09T01:51:45Z</time>
      </trkpt>
      <trkpt lat="49.03173" lon="1.87743">
        <ele>95</ele>
        <time>2023-01-09T01:52:01Z</time>
      </trkpt>
      <trkpt lat="49.03197" lon="1.87733">
        <ele>94</ele>
        <time>2023-01-09T01:52:34Z</time>
      </trkpt>
      <trkpt lat="49.03201" lon="1.87726">
        <ele>93</ele>
        <time>2023-01-09T01:52:42Z</time>
      </trkpt>
      <trkpt lat="49.03199" lon="1.87685">
        <ele>90</ele>
        <time>2023-01-09T01:53:18Z</time>
      </trkpt>
      <trkpt lat="49.0321" lon="1.87668">
        <ele>88</ele>
        <time>2023-01-09T01:53:39Z</time>
      </trkpt>
      <trkpt lat="49.03215" lon="1.87615">
        <ele>83</ele>
        <time>2023-01-09T01:54:26Z</time>
      </trkpt>
      <trkpt lat="49.03241" lon="1.87491">
        <ele>74</ele>
        <time>2023-01-09T01:56:20Z</time>
      </trkpt>
      <trkpt lat="49.03247" lon="1.87432">
        <ele>69</ele>
        <time>2023-01-09T01:57:12Z</time>
      </trkpt>
      <trkpt lat="49.03246" lon="1.87406">
        <ele>68</ele>
        <time>2023-01-09T01:57:35Z</time>
      </trkpt>
      <trkpt lat="49.03233" lon="1.8735">
        <ele>66</ele>
        <time>2023-01-09T01:58:27Z</time>
      </trkpt>
      <trkpt lat="49.03231" lon="1.87306">
        <ele>66</ele>
        <time>2023-01-09T01:59:06Z</time>
      </trkpt>
      <trkpt lat="49.03213" lon="1.87233">
        <ele>62</ele>
        <time>2023-01-09T02:00:14Z</time>
      </trkpt>
      <trkpt lat="49.03211" lon="1.87197">
        <ele>60</ele>
        <time>2023-01-09T02:00:45Z</time>
      </trkpt>
      <trkpt lat="49.03197" lon="1.87127">
        <ele>54</ele>
        <time>2023-01-09T02:01:49Z</time>
      </trkpt>
      <trkpt lat="49.03203" lon="1.87019">
        <ele>51</ele>
        <time>2023-01-09T02:03:24Z</time>
      </trkpt>
      <trkpt lat="49.03235" lon="1.86852">
        <ele>45</ele>
        <time>2023-01-09T02:05:56Z</time>
      </trkpt>
      <trkpt lat="49.0324" lon="1.86785">
        <ele>41</ele>
        <time>2023-01-09T02:06:55Z</time>
      </trkpt>
      <trkpt lat="49.03237" lon="1.8675">
        <ele>39</ele>
        <time>2023-01-09T02:07:26Z</time>
      </trkpt>
      <trkpt lat="49.03255" lon="1.86728">
        <ele>39</ele>
        <time>2023-01-09T02:07:57Z</time>
      </trkpt>
      <trkpt lat="49.03265" lon="1.86723">
        <ele>39</ele>
        <time>2023-01-09T02:08:11Z</time>
      </trkpt>
      <trkpt lat="49.03272" lon="1.86706">
        <ele>40</ele>
        <time>2023-01-09T02:08:29Z</time>
      </trkpt>
      <trkpt lat="49.0328" lon="1.86707">
        <ele>40</ele>
        <time>2023-01-09T02:08:39Z</time>
      </trkpt>
      <trkpt lat="49.03285" lon="1.86703">
        <ele>40</ele>
        <time>2023-01-09T02:08:47Z</time>
      </trkpt>
      <trkpt lat="49.03308" lon="1.8668">
        <ele>40</ele>
        <time>2023-01-09T02:09:24Z</time>
      </trkpt>
      <trkpt lat="49.03332" lon="1.86664">
        <ele>40</ele>
        <time>2023-01-09T02:09:59Z</time>
      </trkpt>
      <trkpt lat="49.03353" lon="1.8664">
        <ele>41</ele>
        <time>2023-01-09T02:10:34Z</time>
      </trkpt>
      <trkpt lat="49.03413" lon="1.86536">
        <ele>38</ele>
        <time>2023-01-09T02:12:35Z</time>
      </trkpt>
      <trkpt lat="49.03432" lon="1.8654">
        <ele>38</ele>
        <time>2023-01-09T02:13:00Z</time>
      </trkpt>
      <trkpt lat="49.03455" lon="1.86551">
        <ele>39</ele>
        <time>2023-01-09T02:13:33Z</time>
      </trkpt>
      <trkpt lat="49.03474" lon="1.86542">
        <ele>39</ele>
        <time>2023-01-09T02:13:59Z</time>
      </trkpt>
      <trkpt lat="49.03482" lon="1.86525">
        <ele>38</ele>
        <time>2023-01-09T02:14:17Z</time>
      </trkpt>
      <trkpt lat="49.03489" lon="1.86491">
        <ele>38</ele>
        <time>2023-01-09T02:14:49Z</time>
      </trkpt>
      <trkpt lat="49.03493" lon="1.8646">
        <ele>39</ele>
        <time>2023-01-09T02:15:16Z</time>
      </trkpt>
      <trkpt lat="49.03487" lon="1.86455">
        <ele>39</ele>
        <time>2023-01-09T02:15:25Z</time>
      </trkpt>
    </trkseg>
  </trk>
</gpx>